Current Conditions
Rain
Conditions



Pressure
1023.92 (mb) - 30.24 (inHG)
Visibility

10.0 (km) - 6.2 (miles)
   Temperature
3  °C
Temperature
2  °C
Dewpoint
93  %
 Humidity
   Wind Speed
27  km/h
15  kts
17  mph
7.6  m/s
   Wind Direction
N
45°
E
90°
135°
S
180°
225°
W
270°
315°
 260°

Due West
   Airport Data
LOWL
Linz-Hörsching Airport / Vogler Air Base
Metar :LOWL 121450Z 26015KT 9999 -RA SCT009 BKN011 03/02 Q1024 NOSIG
Mon 12th April 15:50 pm
   Raw Metar Info
Raw METAR is the most common format in the world for the transmission of observational weather data. It is highly standardized through the International Civil Aviation Organization (ICAO), which allows it to be understood throughout most of the world.
   API Info
Data Provided by
https://www.checkwx.com/weather/LOWL

Aviation Weather providing METAR, TAF, AIRMET, SIGMET and OUTLOOK Weather Reports
   © Info
CSS/SVG/PHP scripts were developed by weather34.com for use in the weather34 template © 2015-2021

Guide Info provided by Metar-Wikipedia